Time;durP1;ratioP1;P1;durP2;ratioP2;P2;SDS_P1;SDS_P2;PMS_P1;PMS_P2;Temp;Humidity;BMP_temperature;BMP_pressure;BME280_temperature;BME280_humidity;BME280_pressure;Samples;Min_cycle;Max_cycle;Signal;HPM_P1;HPM_P2
2023/02/09 00:05:21;;;;;;;12.60;5.60;;;-6.60;99.90;;;;;;20906810;28;20122;-60
2023/02/09 00:15:23;;;;;;;11.45;5.40;;;-6.50;99.90;;;;;;20905971;28;20044;-60
2023/02/09 00:25:24;;;;;;;12.02;5.50;;;-6.50;99.90;;;;;;20903976;28;20025;-60
2023/02/09 00:35:26;;;;;;;10.07;4.63;;;-6.50;99.90;;;;;;20904770;28;20036;-61
2023/02/09 00:45:29;;;;;;;12.27;5.35;;;-6.50;99.90;;;;;;20887180;28;20079;-63
2023/02/09 00:55:31;;;;;;;11.73;5.10;;;-6.50;99.90;;;;;;20902576;28;20028;-62
2023/02/09 01:05:38;;;;;;;10.32;4.90;;;-6.50;99.90;;;;;;20901432;28;20053;-62
2023/02/09 01:15:40;;;;;;;9.88;4.90;;;-6.60;99.90;;;;;;20901234;28;20383;-63
2023/02/09 01:25:43;;;;;;;9.93;4.95;;;-6.90;99.90;;;;;;20899040;28;20433;-59
2023/02/09 01:35:45;;;;;;;10.25;4.80;;;-7.00;99.90;;;;;;20900676;28;20036;-59
2023/02/09 01:45:49;;;;;;;10.00;4.88;;;-7.10;99.90;;;;;;20901428;28;20087;-59
2023/02/09 01:55:57;;;;;;;11.07;5.05;;;-7.40;99.90;;;;;;20901013;28;20025;-59
2023/02/09 02:06:05;;;;;;;10.13;5.00;;;-7.60;99.90;;;;;;20905842;28;20041;-62
2023/02/09 02:16:22;;;;;;;14.07;5.87;;;-7.70;99.90;;;;;;20916213;28;20474;-61
2023/02/09 02:26:42;;;;;;;11.40;4.80;;;-8.10;99.90;;;;;;20913722;28;20086;-61
2023/02/09 02:36:50;;;;;;;12.60;5.28;;;-8.20;99.90;;;;;;20911300;28;20036;-61
2023/02/09 02:46:55;;;;;;;13.30;5.87;;;-8.20;99.90;;;;;;20913867;28;20029;-62
2023/02/09 02:57:05;;;;;;;14.27;6.17;;;-8.20;99.90;;;;;;20914151;28;20474;-61
2023/02/09 03:07:07;;;;;;;14.90;6.68;;;-8.30;99.90;;;;;;20909598;28;20044;-61
2023/02/09 03:17:15;;;;;;;17.53;8.77;;;-8.50;99.90;;;;;;20908441;28;20036;-61
2023/02/09 03:27:41;;;;;;;16.93;7.77;;;-8.50;99.90;;;;;;20907449;28;20033;-62
2023/02/09 03:37:43;;;;;;;15.70;7.57;;;-8.50;99.90;;;;;;20909471;28;20028;-63
2023/02/09 03:47:45;;;;;;;16.70;7.33;;;-8.50;99.90;;;;;;20908853;28;20055;-61
2023/02/09 03:57:46;;;;;;;14.97;6.47;;;-8.60;99.90;;;;;;20906345;28;20032;-61
2023/02/09 04:07:48;;;;;;;8.90;3.87;;;-9.00;99.90;;;;;;20905199;28;20074;-60
2023/02/09 04:17:50;;;;;;;11.23;4.90;;;-9.20;99.90;;;;;;20906092;28;20033;-60
2023/02/09 04:27:51;;;;;;;10.37;4.30;;;-9.00;99.90;;;;;;20906110;28;20033;-61
2023/02/09 04:37:53;;;;;;;11.83;4.17;;;-8.80;99.90;;;;;;20904380;28;20041;-63
2023/02/09 04:47:54;;;;;;;10.63;5.07;;;-8.80;99.90;;;;;;20904118;28;20106;-60
2023/02/09 05:08:16;;;;;;;13.50;5.97;;;-8.70;99.90;;;;;;20899944;28;20052;-61
2023/02/09 05:18:18;;;;;;;15.87;5.33;;;-8.70;99.90;;;;;;20901138;28;20033;-61
2023/02/09 05:28:20;;;;;;;15.03;5.80;;;-8.80;99.90;;;;;;20901680;28;20029;-62
2023/02/09 05:38:22;;;;;;;13.67;6.07;;;-8.80;99.90;;;;;;20904072;28;20028;-60
2023/02/09 05:48:24;;;;;;;14.83;5.87;;;-8.70;99.90;;;;;;20916530;28;20033;-60
2023/02/09 05:58:26;;;;;;;14.87;5.83;;;-8.80;99.90;;;;;;20913804;28;20029;-60
2023/02/09 06:08:27;;;;;;;15.27;6.90;;;-9.00;99.90;;;;;;20916026;28;20059;-60
2023/02/09 06:18:29;;;;;;;12.17;5.00;;;-9.00;99.90;;;;;;20915761;28;20029;-61
2023/02/09 06:28:31;;;;;;;8.57;3.33;;;-9.00;99.90;;;;;;20913231;28;20033;-61
2023/02/09 06:38:34;;;;;;;3.80;1.57;;;-9.40;99.90;;;;;;20911275;28;20086;-60
2023/02/09 06:48:37;;;;;;;4.57;1.90;;;-9.30;99.90;;;;;;20912633;28;20339;-60
2023/02/09 06:58:39;;;;;;;2.73;1.20;;;-8.70;99.90;;;;;;20912426;28;20470;-61
2023/02/09 07:08:42;;;;;;;2.90;1.20;;;-8.50;99.90;;;;;;20908656;28;20041;-63
2023/02/09 07:18:43;;;;;;;4.40;1.30;;;-8.70;99.90;;;;;;20909723;28;20025;-60
2023/02/09 07:28:45;;;;;;;3.73;1.23;;;-8.80;99.90;;;;;;20909846;28;20417;-60
2023/02/09 07:38:47;;;;;;;3.17;1.10;;;-8.70;99.90;;;;;;20910215;28;20040;-62
2023/02/09 07:48:49;;;;;;;3.80;1.33;;;-8.50;99.80;;;;;;20909836;28;20386;-61
2023/02/09 07:58:51;;;;;;;8.20;3.47;;;-7.60;99.90;;;;;;20907626;28;20029;-61
2023/02/09 08:08:53;;;;;;;10.02;4.10;;;-6.30;99.90;;;;;;20906087;28;20544;-61
2023/02/09 08:19:10;;;;;;;10.35;4.60;;;-5.00;99.90;;;;;;20906434;28;20504;-59
2023/02/09 08:29:12;;;;;;;11.38;4.57;;;-3.90;99.90;;;;;;20902725;28;20410;-59
2023/02/09 08:39:13;;;;;;;11.80;5.03;;;-3.30;99.00;;;;;;20904770;28;20025;-61
2023/02/09 08:49:15;;;;;;;10.65;5.10;;;-2.80;97.80;;;;;;20902852;28;20063;-59
2023/02/09 08:59:16;;;;;;;9.52;4.90;;;-2.00;96.80;;;;;;20903270;28;20029;-58
2023/02/09 09:09:18;;;;;;;10.48;5.22;;;-1.30;95.90;;;;;;20902441;28;20048;-59
2023/02/09 09:19:19;;;;;;;11.20;5.28;;;-0.90;96.40;;;;;;20903263;28;20114;-59
2023/02/09 09:29:21;;;;;;;10.25;5.35;;;-0.70;95.40;;;;;;20901663;28;20074;-61
2023/02/09 09:39:24;;;;;;;11.05;5.80;;;-0.50;95.70;;;;;;20901430;28;20040;-59
2023/02/09 09:49:31;;;;;;;9.65;5.03;;;-0.20;94.10;;;;;;20899850;28;20386;-60
2023/02/09 09:59:37;;;;;;;10.73;5.80;;;0.00;94.30;;;;;;20900624;28;20029;-60
2023/02/09 10:09:51;;;;;;;10.10;5.65;;;0.60;94.10;;;;;;20900074;28;20041;-60
2023/02/09 10:20:05;;;;;;;12.40;6.25;;;0.30;93.60;;;;;;20898656;28;20040;-59
2023/02/09 10:30:17;;;;;;;10.85;5.80;;;0.50;93.80;;;;;;20909207;28;20106;-58
2023/02/09 10:40:27;;;;;;;11.38;5.93;;;0.70;92.70;;;;;;20911239;28;20037;-58
2023/02/09 10:50:28;;;;;;;11.57;5.70;;;0.50;92.00;;;;;;20913463;28;20025;-57
2023/02/09 11:00:59;;;;;;;12.38;6.20;;;0.90;91.40;;;;;;20912417;28;20034;-57
2023/02/09 11:11:27;;;;;;;13.57;6.35;;;1.30;92.50;;;;;;20910817;28;20052;-57
2023/02/09 11:22:00;;;;;;;12.48;6.90;;;1.80;92.50;;;;;;20909772;28;20037;-60
2023/02/09 11:32:10;;;;;;;11.07;6.45;;;1.70;91.50;;;;;;20909582;28;20041;-58
2023/02/09 11:52:53;;;;;;;13.40;6.63;;;1.80;92.00;;;;;;20908026;28;20029;-59
2023/02/09 12:03:02;;;;;;;11.38;6.07;;;1.90;89.70;;;;;;20907839;28;20025;-59
2023/02/09 12:13:27;;;;;;;14.32;6.35;;;1.50;92.40;;;;;;20905415;28;20041;-59
2023/02/09 12:23:45;;;;;;;12.98;6.20;;;1.90;91.80;;;;;;20905929;28;20454;-60
2023/02/09 12:33:47;;;;;;;11.90;6.30;;;1.80;91.20;;;;;;20902248;28;20355;-61
2023/02/09 12:44:04;;;;;;;12.98;6.85;;;2.20;91.50;;;;;;20904218;28;20025;-59
2023/02/09 12:54:40;;;;;;;10.63;5.97;;;2.40;90.90;;;;;;20901654;28;20033;-59
2023/02/09 13:05:03;;;;;;;11.45;6.00;;;2.40;90.20;;;;;;20904158;28;20493;-59
2023/02/09 13:15:11;;;;;;;10.10;5.97;;;1.30;90.30;;;;;;20902243;28;20041;-59
2023/02/09 13:25:18;;;;;;;11.77;6.53;;;1.90;91.50;;;;;;20904951;28;20056;-59
2023/02/09 13:35:30;;;;;;;12.50;6.82;;;2.30;91.30;;;;;;20901384;28;20397;-59
2023/02/09 13:45:32;;;;;;;14.90;7.70;;;2.00;91.30;;;;;;20901112;28;20025;-59
2023/02/09 13:55:36;;;;;;;18.50;7.38;;;1.40;90.20;;;;;;20900711;28;20032;-59
2023/02/09 14:05:42;;;;;;;14.98;7.15;;;0.60;93.10;;;;;;20910778;28;20052;-61
2023/02/09 14:16:06;;;;;;;14.10;7.07;;;-0.10;93.30;;;;;;20911983;28;20055;-62
2023/02/09 14:26:14;;;;;;;14.77;6.82;;;-0.80;94.60;;;;;;20913425;28;20482;-61
2023/02/09 14:36:31;;;;;;;18.25;7.75;;;-1.80;94.70;;;;;;20913344;28;20087;-60
2023/02/09 14:46:59;;;;;;;12.00;6.57;;;-2.20;95.80;;;;;;20913536;28;20036;-60
2023/02/09 14:57:02;;;;;;;19.73;7.68;;;-2.40;96.40;;;;;;20910049;28;20041;-60
2023/02/09 15:07:04;;;;;;;13.98;7.07;;;-2.50;97.00;;;;;;20911720;28;20049;-63
2023/02/09 15:17:12;;;;;;;14.85;7.05;;;-2.80;98.00;;;;;;20910904;28;20029;-59
2023/02/09 15:27:36;;;;;;;17.55;7.93;;;-3.00;98.30;;;;;;20910368;28;20091;-60
2023/02/09 15:37:39;;;;;;;16.52;7.47;;;-3.30;98.60;;;;;;20907625;28;20025;-58
2023/02/09 15:47:52;;;;;;;19.27;8.23;;;-3.80;99.20;;;;;;20909087;28;20111;-60
2023/02/09 15:57:55;;;;;;;14.20;6.50;;;-4.40;99.90;;;;;;20905981;28;20323;-60
2023/02/09 16:07:58;;;;;;;19.05;8.00;;;-5.00;99.90;;;;;;20903604;28;20033;-61
2023/02/09 16:17:59;;;;;;;13.65;6.18;;;-5.40;99.90;;;;;;20906549;28;20083;-60
2023/02/09 16:28:01;;;;;;;17.00;7.60;;;-5.70;99.90;;;;;;20904535;28;20560;-61
2023/02/09 16:38:15;;;;;;;17.63;8.02;;;-6.10;99.90;;;;;;20903893;28;20401;-61
2023/02/09 16:48:25;;;;;;;11.07;4.30;;;-6.40;99.90;;;;;;20904490;28;20040;-63
2023/02/09 16:58:27;;;;;;;3.83;1.50;;;-6.60;99.90;;;;;;20903546;28;20388;-62
2023/02/09 17:08:32;;;;;;;4.95;2.33;;;-6.60;99.90;;;;;;20905673;28;20048;-62
2023/02/09 17:18:38;;;;;;;3.40;1.05;;;-6.70;99.90;;;;;;20902589;28;20037;-62
2023/02/09 17:28:40;;;;;;;2.00;0.70;;;-6.70;98.20;;;;;;20899492;28;20544;-61
2023/02/09 17:38:43;;;;;;;1.88;0.70;;;-6.70;97.30;;;;;;20908990;28;20028;-61
2023/02/09 17:48:46;;;;;;;2.78;1.20;;;-6.70;97.30;;;;;;20918068;28;20040;-62
2023/02/09 17:58:47;;;;;;;1.17;0.60;;;-6.80;96.20;;;;;;20917361;28;20033;-62
2023/02/09 18:08:49;;;;;;;1.90;0.87;;;-7.00;96.60;;;;;;20915317;28;20033;-61
2023/02/09 18:18:51;;;;;;;4.07;1.90;;;-7.20;97.20;;;;;;20915969;28;20036;-61
2023/02/09 18:28:52;;;;;;;2.07;0.87;;;-7.30;99.20;;;;;;20915008;28;20025;-62
2023/02/09 18:38:54;;;;;;;1.73;0.60;;;-7.40;97.00;;;;;;20914201;28;20025;-63
2023/02/09 18:48:56;;;;;;;2.07;0.70;;;-7.20;96.30;;;;;;20912552;28;20021;-62
2023/02/09 18:58:57;;;;;;;4.53;1.10;;;-7.20;96.10;;;;;;20911480;28;20033;-62
2023/02/09 19:08:59;;;;;;;1.83;0.90;;;-7.30;96.10;;;;;;20910393;28;20048;-61
2023/02/09 19:19:01;;;;;;;1.73;0.67;;;-7.30;95.20;;;;;;20911780;28;20070;-62
2023/02/09 19:29:02;;;;;;;0.93;0.30;;;-7.20;95.40;;;;;;20907394;28;20095;-61
2023/02/09 19:39:05;;;;;;;1.90;0.50;;;-7.30;94.30;;;;;;20909396;28;20033;-61
2023/02/09 19:49:07;;;;;;;1.17;0.40;;;-7.20;93.90;;;;;;20907864;28;20033;-60
2023/02/09 19:59:09;;;;;;;1.80;0.43;;;-7.20;93.70;;;;;;20906660;28;20033;-60
2023/02/09 20:09:11;;;;;;;1.70;0.40;;;-7.30;93.20;;;;;;20906848;28;20037;-61
2023/02/09 20:19:13;;;;;;;0.70;0.30;;;-7.30;94.10;;;;;;20906752;28;20040;-60
2023/02/09 20:29:15;;;;;;;1.70;0.50;;;-7.30;93.50;;;;;;20904012;28;20037;-60
2023/02/09 20:39:17;;;;;;;1.07;0.37;;;-7.50;93.90;;;;;;20903604;28;20075;-61
2023/02/09 20:49:19;;;;;;;1.63;0.70;;;-7.60;94.40;;;;;;20904175;28;20021;-61
2023/02/09 20:59:20;;;;;;;3.00;1.10;;;-7.80;94.30;;;;;;20904663;28;20596;-61
2023/02/09 21:09:25;;;;;;;2.97;1.47;;;-7.80;94.80;;;;;;20903148;28;20045;-61
2023/02/09 21:19:26;;;;;;;3.70;1.70;;;-7.60;95.10;;;;;;20902662;28;20060;-60
2023/02/09 21:29:28;;;;;;;2.40;1.10;;;-7.70;94.90;;;;;;20901897;28;20017;-61
2023/02/09 21:39:30;;;;;;;2.67;0.80;;;-7.70;94.80;;;;;;20880765;28;20041;-60
2023/02/09 21:49:32;;;;;;;3.13;1.13;;;-7.70;94.90;;;;;;20901483;28;20028;-62
2023/02/09 21:59:34;;;;;;;3.40;1.30;;;-7.60;93.50;;;;;;20902313;28;20481;-62
2023/02/09 22:09:36;;;;;;;2.97;1.00;;;-7.60;94.40;;;;;;20900198;28;20071;-62
2023/02/09 22:19:38;;;;;;;2.93;1.10;;;-7.70;94.60;;;;;;20901813;28;20041;-61
2023/02/09 22:29:39;;;;;;;3.37;1.20;;;-7.70;94.30;;;;;;20914857;28;20078;-61
2023/02/09 22:39:43;;;;;;;1.50;0.67;;;-7.80;94.60;;;;;;20913050;28;20033;-62
2023/02/09 22:49:45;;;;;;;1.83;0.80;;;-7.80;94.10;;;;;;20913701;28;20032;-60
2023/02/09 22:59:47;;;;;;;2.53;0.70;;;-7.90;93.60;;;;;;20912569;28;20441;-61
2023/02/09 23:09:49;;;;;;;1.70;0.53;;;-7.70;92.80;;;;;;20910718;28;20037;-59
2023/02/09 23:19:50;;;;;;;1.53;0.60;;;-7.80;93.00;;;;;;20911372;28;20170;-62
2023/02/09 23:29:54;;;;;;;1.67;0.43;;;-8.10;94.20;;;;;;20912420;28;20535;-61
2023/02/09 23:39:55;;;;;;;1.00;0.50;;;-8.10;94.30;;;;;;20909000;28;20036;-61
2023/02/09 23:49:57;;;;;;;0.70;0.20;;;-8.10;94.00;;;;;;20908995;28;20092;-61
2023/02/09 23:59:58;;;;;;;1.37;0.60;;;-8.00;94.00;;;;;;20908059;28;20466;-61
